Time;durP1;ratioP1;P1;durP2;ratioP2;P2;SDS_P1;SDS_P2;PMS_P1;PMS_P2;Temp;Humidity;BMP_temperature;BMP_pressure;BME280_temperature;BME280_humidity;BME280_pressure;Samples;Min_cycle;Max_cycle;Signal;HPM_P1;HPM_P2
2023/08/26 00:02:42;;;;;;;11.48;11.18;;;;;;;-141.02;100.00;38881.66;5094008;28;20285;-64
2023/08/26 00:08:30;;;;;;;12.02;11.63;;;;;;;-141.02;100.00;38860.56;5093703;28;20185;-65
2023/08/26 00:10:58;;;;;;;12.10;11.70;;;;;;;-141.02;100.00;38898.91;5093883;28;20285;-64
2023/08/26 00:14:02;;;;;;;12.07;11.68;;;;;;;-141.02;100.00;38897.00;5093452;28;20639;-65
2023/08/26 00:16:48;;;;;;;12.23;11.82;;;;;;;-141.02;100.00;38887.41;5079784;28;20212;-65
2023/08/26 00:19:16;;;;;;;11.50;11.20;;;;;;;-141.02;100.00;38879.75;5093624;28;20194;-65
2023/08/26 00:21:43;;;;;;;11.60;11.30;;;;;;;-141.02;100.00;38864.41;5093630;28;20198;-66
2023/08/26 00:24:10;;;;;;;11.02;10.73;;;;;;;-141.02;100.00;38877.81;5093255;28;20194;-62
2023/08/26 00:26:37;;;;;;;11.07;10.77;;;;;;;-141.02;100.00;38870.16;5093174;28;20604;-63
2023/08/26 00:32:29;;;;;;;11.10;10.80;;;;;;;-141.02;100.00;38845.22;5093101;28;20201;-64
2023/08/26 00:35:38;;;;;;;11.20;10.90;;;;;;;-141.02;100.00;38841.41;5093871;28;20601;-65
2023/08/26 00:38:05;;;;;;;11.50;11.20;;;;;;;-141.02;100.00;38818.38;5092954;28;20277;-62
2023/08/26 00:40:36;;;;;;;11.27;10.98;;;;;;;-141.02;100.00;38862.50;5093003;28;20285;-63
2023/08/26 00:43:33;;;;;;;11.40;11.10;;;;;;;-141.02;100.00;38845.22;5092941;28;20186;-64
2023/08/26 00:46:16;;;;;;;11.52;11.23;;;;;;;-141.02;100.00;38856.72;5092764;28;20297;-63
2023/08/26 00:48:44;;;;;;;11.27;10.98;;;;;;;-141.02;100.00;38860.56;5092866;28;20188;-63
2023/08/26 00:51:12;;;;;;;11.25;10.95;;;;;;;-141.02;100.00;38868.25;5093039;28;20246;-65
2023/08/26 00:57:00;;;;;;;10.70;10.40;;;;;;;-141.02;100.00;38854.81;5092785;28;20207;-61
2023/08/26 00:59:27;;;;;;;10.57;10.27;;;;;;;-141.02;100.00;38862.50;5092399;28;20677;-66
2023/08/26 01:02:06;;;;;;;10.38;10.07;;;;;;;-141.02;100.00;38841.41;5092888;28;20289;-64
2023/08/26 01:04:35;;;;;;;10.23;9.93;;;;;;;-141.02;100.00;38845.22;5092841;28;20269;-65
2023/08/26 01:07:02;;;;;;;9.88;9.57;;;;;;;-141.02;100.00;38870.16;5092400;28;20312;-62
2023/08/26 01:09:29;;;;;;;9.65;9.35;;;;;;;-141.02;100.00;38868.25;5092725;28;20197;-65
2023/08/26 01:12:04;;;;;;;9.77;9.48;;;;;;;-141.02;100.00;38856.72;5092715;28;20198;-65
2023/08/26 01:14:35;;;;;;;9.70;9.40;;;;;;;-141.02;100.00;38860.56;5092682;28;20229;-63
2023/08/26 01:17:05;;;;;;;10.02;9.73;;;;;;;-141.02;100.00;38839.47;5092721;28;20273;-65
2023/08/26 01:19:36;;;;;;;9.70;9.40;;;;;;;-141.02;100.00;38897.00;5092608;28;20193;-63
2023/08/26 01:22:07;;;;;;;9.82;9.52;;;;;;;-141.02;100.00;39140.53;5092639;28;20268;-63
2023/08/26 01:24:39;;;;;;;9.27;9.00;;;;;;;-141.02;100.00;39182.72;5092489;28;20277;-64
2023/08/26 01:27:07;;;;;;;9.10;8.90;;;;;;;-141.02;100.00;39278.59;5092162;28;20308;-65
2023/08/26 01:29:35;;;;;;;9.00;8.80;;;;;;;-141.02;100.00;39255.59;5092219;28;20197;-65
2023/08/26 01:32:17;;;;;;;9.20;9.00;;;;;;;-141.02;100.00;39443.53;5092142;28;20205;-65
2023/08/26 01:34:48;;;;;;;8.70;8.50;;;;;;;-141.02;100.00;39512.56;5092113;28;20185;-65
2023/08/26 01:37:19;;;;;;;9.05;8.85;;;;;;;-141.02;100.00;39658.34;5092104;28;20727;-65
2023/08/26 01:39:49;;;;;;;8.27;8.07;;;;;;;-141.02;100.00;39619.97;5092093;28;20237;-65
2023/08/26 01:42:18;;;;;;;9.30;9.10;;;;;;;-141.02;100.00;39485.72;5092329;28;20274;-63
2023/08/26 01:48:40;;;;;;;9.50;9.20;;;;;;;-141.02;100.00;39435.88;5091875;28;20656;-65
2023/08/26 01:54:29;;;;;;;10.10;9.80;;;;;;;-141.02;100.00;39372.56;5092034;28;20189;-63
2023/08/26 01:56:57;;;;;;;9.70;9.40;;;;;;;-141.02;100.00;39305.44;5091854;28;20648;-65
2023/08/26 01:59:24;;;;;;;9.80;9.50;;;;;;;-141.02;100.00;39276.69;5091832;28;20225;-63
2023/08/26 02:01:51;;;;;;;9.63;9.32;;;;;;;-141.02;100.00;39299.69;5092199;28;20189;-63
2023/08/26 02:04:18;;;;;;;9.73;9.43;;;;;;;-141.02;100.00;39263.25;5091834;28;20200;-65
2023/08/26 02:06:44;;;;;;;10.30;10.00;;;;;;;-141.02;100.00;39313.13;5093959;28;20235;-62
2023/08/26 02:15:39;;;;;;;8.95;8.75;;;;;;;-141.02;100.00;39581.63;5095078;28;20266;-65
2023/08/26 02:21:27;;;;;;;8.65;8.45;;;;;;;-141.02;100.00;39708.19;5095635;28;20201;-65
2023/08/26 02:23:54;;;;;;;8.30;8.10;;;;;;;-141.02;100.00;39735.06;5095636;28;20806;-64
2023/08/26 02:26:42;;;;;;;8.98;8.77;;;;;;;-141.02;100.00;39683.28;5095509;28;20261;-65
2023/08/26 02:29:10;;;;;;;9.43;9.13;;;;;;;-141.02;100.00;39765.75;5095458;28;20229;-59
2023/08/26 02:31:40;;;;;;;9.00;8.80;;;;;;;-141.02;100.00;39825.19;5095779;28;20276;-60
2023/08/26 02:37:53;;;;;;;9.05;8.85;;;;;;;-141.02;100.00;39784.91;5033192;28;20281;-60
2023/08/26 02:40:20;;;;;;;8.20;8.00;;;;;;;-141.02;100.00;39999.75;5032876;28;20282;-63
2023/08/26 02:42:47;;;;;;;8.40;8.20;;;;;;;-141.02;100.00;39940.28;5033110;28;20199;-64
2023/08/26 02:45:16;;;;;;;8.55;8.35;;;;;;;-141.02;100.00;39923.03;5032980;28;20241;-64
2023/08/26 02:47:43;;;;;;;8.30;8.10;;;;;;;-141.02;100.00;39921.09;5032909;28;20702;-64
2023/08/26 02:50:10;;;;;;;8.85;8.65;;;;;;;-141.02;100.00;39119.44;5032888;28;20689;-65
2023/08/26 02:52:43;;;;;;;8.60;8.40;;;;;;;-141.02;100.00;39940.28;5032827;28;20286;-65
2023/08/26 02:58:31;;;;;;;8.50;8.30;;;;;;;-141.02;100.00;39915.34;5028357;28;20265;-64
2023/08/26 03:01:18;;;;;;;8.52;8.32;;;;;;;-141.02;100.00;39884.66;5032680;28;20207;-64
2023/08/26 03:07:06;;;;;;;8.40;8.20;;;;;;;-141.02;100.00;40316.25;5032579;28;20262;-65
2023/08/26 03:13:08;;;;;;;8.20;8.00;;;;;;;-141.02;100.00;40550.28;5034835;28;20202;-61
2023/08/26 03:15:35;;;;;;;8.00;7.80;;;;;;;-141.02;100.00;40671.16;5094993;28;20221;-65
2023/08/26 03:18:03;;;;;;;8.38;8.18;;;;;;;-141.02;100.00;40960.88;5094110;28;20648;-57
2023/08/26 03:20:30;;;;;;;8.05;7.85;;;;;;;-141.02;100.00;41074.06;5094605;28;20656;-65
2023/08/26 03:22:57;;;;;;;8.00;7.80;;;;;;;-141.02;100.00;41248.69;5094779;28;20285;-64
2023/08/26 03:29:03;;;;;;;7.50;7.30;;;;;;;-141.02;100.00;41684.28;5094445;28;20189;-57
2023/08/26 03:32:05;;;;;;;7.45;7.25;;;;;;;-141.02;100.00;42041.25;5094309;28;20247;-58
2023/08/26 03:34:33;;;;;;;8.02;7.82;;;;;;;-141.02;100.00;42409.78;5094576;28;20284;-64
2023/08/26 03:37:00;;;;;;;8.05;7.85;;;;;;;-141.02;100.00;42885.84;5094521;28;20190;-62
2023/08/26 03:39:27;;;;;;;7.90;7.70;;;;;;;-141.02;100.00;43423.44;5094522;28;20226;-61
2023/08/26 03:41:54;;;;;;;7.78;7.57;;;;;;;-141.02;100.00;44498.84;5094451;28;20229;-62
2023/08/26 03:44:21;;;;;;;7.38;7.18;;;;;;;-141.02;100.00;45338.31;5094409;28;20276;-65
2023/08/26 03:46:48;;;;;;;7.63;7.43;;;;;;;-141.02;100.00;46552.69;5093903;28;20264;-60
2023/08/26 03:49:15;;;;;;;7.63;7.43;;;;;;;-141.02;100.00;47930.97;5094300;28;20258;-59
2023/08/26 03:51:44;;;;;;;7.40;7.20;;;;;;;-141.02;100.00;48661.66;5094329;28;20237;-62
2023/08/26 03:54:11;;;;;;;6.97;6.78;;;;;;;-141.02;100.00;50000.38;5094274;28;20205;-61
2023/08/26 03:56:38;;;;;;;6.95;6.75;;;;;;;-141.02;100.00;51401.22;5093827;28;20197;-63
2023/08/26 03:59:05;;;;;;;6.70;6.50;;;;;;;-141.02;100.00;53241.66;5093812;28;20661;-59
2023/08/26 04:01:32;;;;;;;6.75;6.55;;;;;;;-141.02;100.00;54539.81;5093677;28;20575;-59
2023/08/26 04:03:59;;;;;;;6.20;6.10;;;;;;;-141.02;100.00;55526.28;5094001;28;20289;-61
2023/08/26 04:06:26;;;;;;;6.30;6.20;;;;;;;-141.02;100.00;56019.63;5093846;28;20660;-61
2023/08/26 04:08:54;;;;;;;6.93;6.72;;;;;;;-141.02;100.00;56513.03;5093910;28;20583;-64
2023/08/26 04:11:21;;;;;;;6.70;6.50;;;;;;;-141.02;100.00;58981.19;5093593;28;20190;-58
2023/08/26 04:13:48;;;;;;;7.22;7.03;;;;;;;-141.02;100.00;57006.53;5093794;28;20272;-61
2023/08/26 04:16:16;;;;;;;7.38;7.18;;;;;;;-141.02;100.00;54501.28;5093463;28;20251;-60
2023/08/26 04:18:44;;;;;;;8.00;7.80;;;;;;;-141.02;100.00;51220.31;5093362;28;20202;-58
2023/08/26 04:21:11;;;;;;;8.90;8.70;;;;;;;-141.02;100.00;49067.44;5093383;28;20194;-60
2023/08/26 04:23:38;;;;;;;10.00;9.70;;;;;;;-141.02;100.00;47308.09;5093587;28;20233;-62
2023/08/26 04:26:06;;;;;;;10.75;10.45;;;;;;;-141.02;100.00;46631.50;5093310;28;20276;-63
2023/08/26 04:28:33;;;;;;;10.93;10.63;;;;;;;-141.02;100.00;45689.91;5092250;28;20236;-60
2023/08/26 04:31:01;;;;;;;11.35;11.05;;;;;;;-141.02;100.00;45739.84;5093430;28;20243;-58
2023/08/26 04:33:29;;;;;;;11.05;10.75;;;;;;;-141.02;100.00;45843.59;5093084;28;20194;-59
2023/08/26 04:35:56;;;;;;;11.35;11.05;;;;;;;-141.02;100.00;45436.28;5093343;28;20609;-61
2023/08/26 04:38:23;;;;;;;12.48;12.07;;;;;;;-141.02;100.00;45228.78;5093347;28;20193;-61
2023/08/26 04:40:50;;;;;;;14.05;13.65;;;;;;;-141.02;100.00;44646.75;5092987;28;20194;-64
2023/08/26 04:43:18;;;;;;;14.10;13.70;;;;;;;-141.02;100.00;44510.38;5092953;28;20196;-64
2023/08/26 04:45:45;;;;;;;13.70;13.30;;;;;;;-141.02;100.00;44381.69;5093246;28;20254;-58
2023/08/26 04:48:14;;;;;;;13.77;13.38;;;;;;;-141.02;100.00;44205.00;5093118;28;20691;-59
2023/08/26 04:50:41;;;;;;;13.80;13.40;;;;;;;-141.02;100.00;44107.06;5092837;28;20731;-64
2023/08/26 04:53:08;;;;;;;13.60;13.20;;;;;;;-141.02;100.00;44189.63;5092774;28;20636;-65
2023/08/26 04:55:35;;;;;;;13.95;13.55;;;;;;;-141.02;100.00;44020.63;5092715;28;20706;-65
2023/08/26 04:58:02;;;;;;;14.20;13.70;;;;;;;-141.02;100.00;43901.56;5092679;28;20279;-62
2023/08/26 05:00:31;;;;;;;14.18;13.77;;;;;;;-141.02;100.00;43911.16;5092466;28;20290;-61
2023/08/26 05:02:58;;;;;;;14.52;14.02;;;;;;;-141.02;100.00;43888.13;5092907;28;20664;-61
2023/08/26 05:05:25;;;;;;;14.82;14.32;;;;;;;-141.02;100.00;43811.31;5092534;28;20643;-65
2023/08/26 05:07:52;;;;;;;15.10;14.60;;;;;;;-141.02;100.00;43573.19;5092759;28;20308;-62
2023/08/26 05:10:19;;;;;;;14.13;13.63;;;;;;;-141.02;100.00;43388.88;5092463;28;20284;-59
2023/08/26 05:12:46;;;;;;;14.80;14.30;;;;;;;-141.02;100.00;43513.69;5092696;28;20197;-61
2023/08/26 05:15:12;;;;;;;14.90;14.40;;;;;;;-141.02;100.00;43496.41;5092422;28;20594;-62
2023/08/26 05:17:41;;;;;;;15.27;14.68;;;;;;;-141.02;100.00;43308.22;5092608;28;20193;-62
2023/08/26 05:20:09;;;;;;;15.50;14.90;;;;;;;-141.02;100.00;43442.63;5092591;28;20228;-59
2023/08/26 05:22:36;;;;;;;16.52;15.82;;;;;;;-141.02;100.00;43269.81;5092549;28;20244;-60
2023/08/26 05:25:03;;;;;;;16.33;15.63;;;;;;;-141.02;100.00;43135.44;5092280;28;20193;-63
2023/08/26 05:27:30;;;;;;;15.93;15.32;;;;;;;-141.02;100.00;42728.44;5092133;28;20225;-63
2023/08/26 05:29:57;;;;;;;15.80;15.20;;;;;;;-141.02;100.00;42597.91;5092176;28;20194;-61
2023/08/26 05:32:25;;;;;;;15.90;15.30;;;;;;;-141.02;100.00;42739.94;5092197;28;20198;-65
2023/08/26 05:34:53;;;;;;;15.43;14.82;;;;;;;-141.02;100.00;42448.16;5092453;28;20651;-65
2023/08/26 05:37:20;;;;;;;15.95;15.35;;;;;;;-141.02;100.00;42536.47;5092099;28;20233;-60
2023/08/26 05:39:47;;;;;;;15.82;15.13;;;;;;;-141.02;100.00;42597.91;5091857;28;20289;-64
2023/08/26 05:42:14;;;;;;;16.27;15.68;;;;;;;-141.02;100.00;42939.59;5092374;28;20655;-64
2023/08/26 05:44:41;;;;;;;16.48;15.85;;;;;;;-141.02;100.00;43024.06;5092005;28;20289;-63
2023/08/26 05:47:08;;;;;;;16.50;15.90;;;;;;;-141.02;100.00;42997.19;5091878;28;20288;-63
2023/08/26 05:49:35;;;;;;;16.30;15.70;;;;;;;-141.02;100.00;42985.69;5092324;28;20273;-64
2023/08/26 05:52:03;;;;;;;16.60;15.90;;;;;;;-141.02;100.00;42751.47;5091929;28;20286;-63
2023/08/26 05:54:30;;;;;;;17.10;16.40;;;;;;;-141.02;100.00;42751.47;5091907;28;20284;-64
2023/08/26 05:56:57;;;;;;;17.48;16.77;;;;;;;-141.02;100.00;42688.13;5091966;28;20634;-64
2023/08/26 05:59:24;;;;;;;17.20;16.50;;;;;;;-141.02;100.00;42908.88;5091928;28;20225;-64
2023/08/26 06:01:51;;;;;;;17.33;16.63;;;;;;;-141.02;100.00;43279.44;5092024;28;20293;-65
2023/08/26 06:04:18;;;;;;;17.55;16.85;;;;;;;-141.02;100.00;43365.81;5091844;28;20656;-66
2023/08/26 06:06:45;;;;;;;18.10;17.30;;;;;;;-141.02;100.00;43256.38;5092153;28;20224;-63
2023/08/26 06:09:14;;;;;;;18.25;17.45;;;;;;;-141.02;100.00;43379.28;5092052;28;20257;-64
2023/08/26 06:11:41;;;;;;;17.58;16.77;;;;;;;-141.02;100.00;43231.44;5091723;28;20198;-64
2023/08/26 06:14:08;;;;;;;17.25;16.48;;;;;;;-141.02;100.00;43062.47;5091810;28;20198;-65
2023/08/26 06:16:35;;;;;;;17.10;16.38;;;;;;;-141.02;100.00;43227.59;5092027;28;20194;-64
2023/08/26 06:19:02;;;;;;;17.88;17.08;;;;;;;-141.02;100.00;43312.06;5092062;28;20277;-65
2023/08/26 06:21:29;;;;;;;18.35;17.55;;;;;;;-141.02;100.00;43335.09;5092028;28;20201;-65
2023/08/26 06:23:56;;;;;;;18.42;17.63;;;;;;;-141.02;100.00;43244.88;5091686;28;20194;-65
2023/08/26 06:26:24;;;;;;;18.38;17.58;;;;;;;-141.02;100.00;43338.94;5091635;28;20570;-63
2023/08/26 06:28:52;;;;;;;18.00;17.20;;;;;;;-141.02;98.96;43223.75;5091840;28;20309;-65
2023/08/26 06:31:19;;;;;;;18.27;17.48;;;;;;;-141.02;98.99;43166.16;5091587;28;20679;-62
2023/08/26 06:33:46;;;;;;;18.40;17.60;;;;;;;-141.02;99.16;43108.56;5091605;28;20233;-64
2023/08/26 06:36:13;;;;;;;18.65;17.75;;;;;;;-141.02;97.48;43050.97;5091513;28;20660;-65
2023/08/26 06:38:40;;;;;;;18.63;17.83;;;;;;;-141.02;96.95;43070.16;5091829;28;20200;-65
2023/08/26 06:41:07;;;;;;;18.80;17.90;;;;;;;-141.02;95.97;42968.41;5091758;28;20273;-65
2023/08/26 06:43:35;;;;;;;19.15;18.25;;;;;;;-141.02;93.79;43049.03;5091391;28;20204;-64
2023/08/26 06:46:02;;;;;;;19.48;18.58;;;;;;;-141.02;90.17;42728.44;5091432;28;20613;-65
2023/08/26 06:48:29;;;;;;;19.48;18.58;;;;;;;-141.02;90.81;42920.41;5091419;28;20783;-58
2023/08/26 06:50:56;;;;;;;19.35;18.45;;;;;;;-141.02;89.41;42897.38;5091366;28;20737;-65
2023/08/26 06:53:23;;;;;;;19.92;18.92;;;;;;;-141.02;89.67;43041.34;5094260;28;20208;-65
2023/08/26 06:55:51;;;;;;;19.75;18.75;;;;;;;-141.02;88.57;43012.56;5094960;28;20230;-63
2023/08/26 06:58:18;;;;;;;19.85;18.85;;;;;;;-141.02;86.14;43081.66;5095008;28;20276;-64
2023/08/26 07:00:47;;;;;;;19.63;18.67;;;;;;;-141.02;84.60;43062.47;5094993;28;20277;-63
2023/08/26 07:03:14;;;;;;;19.77;18.88;;;;;;;-141.02;83.28;43216.06;5094788;28;20194;-64
2023/08/26 07:05:44;;;;;;;19.83;18.92;;;;;;;-141.02;81.92;43381.19;5095098;28;20281;-63
2023/08/26 07:08:11;;;;;;;19.27;18.38;;;;;;;-141.02;82.05;43686.50;5095054;28;20224;-65
2023/08/26 07:10:38;;;;;;;19.58;18.67;;;;;;;-141.02;80.29;43557.84;5094656;28;20204;-66
2023/08/26 07:13:05;;;;;;;20.05;19.05;;;;;;;-141.02;78.99;43565.53;5094966;28;20273;-64
2023/08/26 07:15:32;;;;;;;19.92;18.92;;;;;;;-141.02;77.64;43732.56;5094643;28;20233;-64
2023/08/26 07:18:01;;;;;;;20.10;19.10;;;;;;;-141.02;76.67;43838.19;5094832;28;20285;-65
2023/08/26 07:20:28;;;;;;;20.15;19.15;;;;;;;-141.02;73.44;43603.94;5094582;28;20189;-66
2023/08/26 07:22:55;;;;;;;20.17;19.17;;;;;;;-141.02;68.77;43216.06;5095134;28;20281;-65
2023/08/26 07:25:23;;;;;;;19.90;18.90;;;;;;;-141.02;68.26;43049.03;5094445;28;20285;-65
2023/08/26 07:27:49;;;;;;;20.10;19.10;;;;;;;-141.02;67.20;43125.84;5094334;28;20278;-66
2023/08/26 07:30:16;;;;;;;20.08;19.08;;;;;;;-141.02;66.83;43216.06;5094445;28;20659;-65
2023/08/26 07:32:43;;;;;;;19.50;18.60;;;;;;;-141.02;66.37;43123.91;5094607;28;20255;-61
2023/08/26 07:35:12;;;;;;;19.90;18.90;;;;;;;-141.02;66.75;43189.19;5094248;28;20692;-67
2023/08/26 07:37:39;;;;;;;19.90;18.90;;;;;;;-141.02;66.94;43116.22;5094230;28;20284;-60
2023/08/26 07:40:13;;;;;;;19.45;18.45;;;;;;;-141.02;66.31;43373.50;5094203;28;20194;-61
2023/08/26 07:42:40;;;;;;;19.67;18.67;;;;;;;-141.02;65.98;43542.47;5094536;28;20269;-63
2023/08/26 07:45:08;;;;;;;19.77;18.77;;;;;;;-141.02;64.49;43530.97;5094109;28;20193;-59
2023/08/26 07:47:35;;;;;;;19.50;18.50;;;;;;;-141.02;64.21;43554.00;5093938;28;20289;-62
2023/08/26 07:50:02;;;;;;;19.35;18.35;;;;;;;-141.02;63.80;43492.56;5094257;28;20198;-63
2023/08/26 07:52:31;;;;;;;19.50;18.50;;;;;;;-141.02;63.69;43383.09;5094165;28;20228;-61
2023/08/26 07:54:58;;;;;;;19.38;18.38;;;;;;;-141.02;63.29;43680.72;5093821;28;20733;-64
2023/08/26 07:57:25;;;;;;;19.55;18.50;;;;;;;-141.02;61.79;43976.47;5093738;28;20285;-62
2023/08/26 07:59:52;;;;;;;19.45;18.45;;;;;;;-141.02;61.11;43993.75;5093649;28;20244;-59
2023/08/26 08:02:20;;;;;;;19.52;18.45;;;;;;;-141.02;59.94;44201.16;5093997;28;20276;-62
2023/08/26 08:04:47;;;;;;;19.70;18.60;;;;;;;-141.02;58.27;43865.09;5093639;28;20287;-61
2023/08/26 08:07:14;;;;;;;19.52;18.48;;;;;;;-141.02;59.44;43717.22;5093692;28;20196;-61
2023/08/26 08:09:42;;;;;;;19.20;18.20;;;;;;;-141.02;58.92;44103.22;5093865;28;20257;-60
2023/08/26 08:12:09;;;;;;;19.55;18.45;;;;;;;-141.02;58.77;44141.63;5093826;28;20281;-58
2023/08/26 08:14:36;;;;;;;19.45;18.35;;;;;;;-141.02;57.37;44011.03;5093451;28;20240;-59
2023/08/26 08:17:04;;;;;;;19.35;18.25;;;;;;;-141.02;56.65;44251.09;5093488;28;20280;-59
2023/08/26 08:19:31;;;;;;;19.95;18.85;;;;;;;-141.02;56.13;43740.25;5093417;28;20194;-60
2023/08/26 08:21:58;;;;;;;19.50;18.40;;;;;;;-141.02;56.95;43987.97;5093399;28;20247;-63
2023/08/26 08:24:25;;;;;;;19.10;18.00;;;;;;;-141.02;57.12;43964.94;5093633;28;20285;-61
2023/08/26 08:26:53;;;;;;;19.08;18.08;;;;;;;-141.02;56.43;43941.91;5093569;28;20289;-64
2023/08/26 08:29:20;;;;;;;18.85;17.85;;;;;;;-141.02;55.19;44105.13;5093505;28;20312;-65
2023/08/26 08:31:47;;;;;;;18.95;17.90;;;;;;;-141.02;55.56;44229.97;5093229;28;20290;-66
2023/08/26 08:34:14;;;;;;;19.02;18.00;;;;;;;-141.02;54.40;44036.00;5093501;28;20204;-62
2023/08/26 08:36:41;;;;;;;18.63;17.63;;;;;;;-141.02;54.19;43874.69;5093065;28;20201;-62
2023/08/26 08:39:08;;;;;;;18.80;17.80;;;;;;;-141.02;54.30;43838.19;5093055;28;20189;-62
2023/08/26 08:41:36;;;;;;;18.95;17.85;;;;;;;-141.02;54.62;44016.78;5093315;28;20587;-61
2023/08/26 08:44:10;;;;;;;19.05;17.95;;;;;;;-141.02;54.15;44329.84;5092929;28;20569;-66
2023/08/26 08:46:38;;;;;;;18.65;17.65;;;;;;;-141.02;53.79;44164.66;5093240;28;20189;-65
2023/08/26 08:49:06;;;;;;;18.58;17.58;;;;;;;-141.02;53.28;44103.22;5093641;28;20580;-59
2023/08/26 08:51:34;;;;;;;18.90;17.90;;;;;;;-141.02;53.92;44133.94;5093163;28;20280;-63
2023/08/26 08:54:04;;;;;;;18.60;17.60;;;;;;;-141.02;53.70;44410.50;5093054;28;20668;-64
2023/08/26 08:56:33;;;;;;;18.80;17.75;;;;;;;-141.02;53.57;44281.81;5093029;28;20193;-59
2023/08/26 08:59:01;;;;;;;368.30;66.53;;;;;;;-141.02;54.07;44208.84;5092358;28;20236;-60
2023/08/26 09:01:31;;;;;;;18.75;17.75;;;;;;;-141.02;54.79;43859.31;5092672;28;20204;-65
2023/08/26 09:03:58;;;;;;;18.73;17.73;;;;;;;-141.02;55.06;44143.53;5092900;28;20202;-64
2023/08/26 09:06:26;;;;;;;18.55;17.55;;;;;;;-141.02;53.47;44414.34;5092812;28;20233;-66
2023/08/26 09:08:55;;;;;;;19.05;18.05;;;;;;;-141.02;52.85;44738.94;5092427;28;20317;-66
2023/08/26 09:11:21;;;;;;;18.98;17.98;;;;;;;-141.02;52.14;44825.38;5092538;28;20194;-65
2023/08/26 09:13:48;;;;;;;18.85;17.85;;;;;;;-141.02;51.34;44510.38;5092787;28;20197;-62
2023/08/26 09:16:15;;;;;;;18.95;17.95;;;;;;;-141.02;51.21;44886.84;5092323;28;20620;-63
2023/08/26 09:18:44;;;;;;;19.33;18.23;;;;;;;-141.02;50.66;44929.13;5092634;28;20216;-64
2023/08/26 09:21:13;;;;;;;19.10;18.05;;;;;;;-141.02;49.42;44848.44;5092673;28;20200;-67
2023/08/26 09:23:44;;;;;;;19.13;18.02;;;;;;;-141.02;49.50;44771.59;5092288;28;20196;-67
2023/08/26 09:26:12;;;;;;;19.05;17.98;;;;;;;-141.02;50.25;44550.72;5092293;28;20197;-65
2023/08/26 09:28:39;;;;;;;19.02;17.92;;;;;;;-141.02;48.91;44713.97;5092183;28;20244;-67
2023/08/26 09:31:07;;;;;;;18.80;17.80;;;;;;;-141.02;49.44;44531.50;5092564;28;20198;-66
2023/08/26 09:33:34;;;;;;;18.67;17.67;;;;;;;-141.02;49.21;44848.44;5092172;28;20236;-62
2023/08/26 09:36:04;;;;;;;18.85;17.85;;;;;;;-141.02;49.19;44660.19;5092139;28;20197;-62
2023/08/26 09:38:43;;;;;;;18.85;17.85;;;;;;;-141.02;48.98;44783.13;5092081;28;20207;-63
2023/08/26 09:41:11;;;;;;;18.85;17.85;;;;;;;-141.02;48.69;45173.09;5092145;28;20224;-68
2023/08/26 09:43:41;;;;;;;18.65;17.65;;;;;;;-141.02;47.89;44886.84;5092426;28;20193;-64
2023/08/26 09:46:08;;;;;;;18.52;17.52;;;;;;;-141.02;47.88;44591.03;5092055;28;20255;-64
2023/08/26 09:48:35;;;;;;;18.83;17.80;;;;;;;-141.02;48.15;44633.31;5091924;28;20318;-67
2023/08/26 09:51:07;;;;;;;18.70;17.70;;;;;;;-141.02;48.57;44037.91;5092299;28;20204;-66
2023/08/26 09:53:34;;;;;;;18.90;17.83;;;;;;;-141.02;48.45;44502.69;5092349;28;20189;-64
2023/08/26 09:56:02;;;;;;;18.27;17.27;;;;;;;-141.02;47.25;44673.63;5092232;28;20267;-67
2023/08/26 09:58:29;;;;;;;18.10;17.10;;;;;;;-141.02;47.73;44387.44;5092020;28;20198;-65
2023/08/26 10:00:57;;;;;;;18.33;17.33;;;;;;;-141.02;46.99;44706.28;5091956;28;20231;-66
2023/08/26 10:03:25;;;;;;;18.65;17.65;;;;;;;-141.02;47.23;44508.44;5092214;28;20202;-64
2023/08/26 10:05:55;;;;;;;18.60;17.60;;;;;;;-141.02;47.27;44433.53;5092225;28;20194;-63
2023/08/26 10:08:29;;;;;;;18.73;17.73;;;;;;;-141.02;46.95;44137.78;5092064;28;20204;-66
2023/08/26 10:10:56;;;;;;;18.52;17.52;;;;;;;-141.02;48.29;44020.63;5091981;28;20280;-66
2023/08/26 10:13:26;;;;;;;18.60;17.60;;;;;;;-141.02;46.65;44168.50;5091845;28;20190;-58
2023/08/26 10:15:55;;;;;;;18.17;17.17;;;;;;;-141.02;46.23;44514.22;5092099;28;20619;-58
2023/08/26 10:18:31;;;;;;;18.23;17.23;;;;;;;-141.02;45.36;43546.31;5091983;28;20277;-58
2023/08/26 10:21:02;;;;;;;18.13;17.13;;;;;;;-141.02;44.66;43857.41;5091808;28;20666;-59
2023/08/26 10:23:31;;;;;;;27.75;26.45;;;;;;;-141.02;45.25;44183.88;5091987;28;20190;-58
2023/08/26 10:26:02;;;;;;;20.10;19.10;;;;;;;-141.02;44.63;44183.88;5091717;28;20194;-60
2023/08/26 10:28:31;;;;;;;20.58;19.58;;;;;;;-141.02;45.06;44279.91;5095197;28;20231;-61
2023/08/26 10:30:58;;;;;;;20.73;19.73;;;;;;;-141.02;43.74;44212.69;5095820;28;20198;-66
2023/08/26 10:33:25;;;;;;;19.83;18.83;;;;;;;-141.02;43.04;43678.81;5095816;28;20620;-61
2023/08/26 10:36:00;;;;;;;51.47;48.83;;;;;;;-141.02;44.10;43880.44;5095715;28;20273;-66
2023/08/26 10:38:27;;;;;;;55.97;53.17;;;;;;;-141.02;44.41;43880.44;5095696;28;20219;-61
2023/08/26 10:41:11;;;;;;;43.13;40.67;;;;;;;-141.02;40.53;43252.56;5095619;28;20189;-59
2023/08/26 10:43:38;;;;;;;32.92;31.23;;;;;;;-141.02;41.78;43242.94;5095287;28;20653;-60
2023/08/26 10:46:05;;;;;;;36.03;34.05;;;;;;;-141.02;41.31;43392.72;5095195;28;20678;-61
2023/08/26 10:48:54;;;;;;;18.58;17.67;;;;;;;-141.02;43.77;43611.59;5095129;28;20631;-63
2023/08/26 10:51:21;;;;;;;19.75;18.75;;;;;;;-141.02;43.82;43738.34;5095491;28;20186;-59
2023/08/26 10:53:49;;;;;;;18.38;17.38;;;;;;;-141.02;43.60;43845.88;5095452;28;20229;-59
2023/08/26 10:56:21;;;;;;;19.48;18.38;;;;;;;-141.02;42.64;43711.47;5095343;28;20220;-61
2023/08/26 10:58:49;;;;;;;19.95;18.85;;;;;;;-141.02;42.66;43776.75;5094949;28;20248;-64
2023/08/26 11:01:17;;;;;;;18.75;17.75;;;;;;;-141.02;42.82;43761.38;5094941;28;20562;-67
2023/08/26 11:03:45;;;;;;;36.47;34.35;;;;;;;-141.02;42.59;43423.44;5095229;28;20189;-61
2023/08/26 11:06:19;;;;;;;34.72;32.72;;;;;;;-141.02;42.48;43519.44;5095150;28;20197;-58
2023/08/26 11:08:54;;;;;;;18.92;17.83;;;;;;;-141.02;41.48;43573.19;5095147;28;20243;-59
2023/08/26 11:11:23;;;;;;;21.63;20.15;;;;;;;-141.02;40.90;43611.59;5094781;28;20185;-64
2023/08/26 11:13:50;;;;;;;18.90;17.80;;;;;;;-141.02;40.36;43540.56;5095058;28;20280;-65
2023/08/26 11:16:17;;;;;;;18.67;17.58;;;;;;;-141.02;40.59;43703.78;5094991;28;20276;-62
2023/08/26 11:18:44;;;;;;;18.60;17.55;;;;;;;-141.02;40.05;43792.09;5094597;28;20288;-61
2023/08/26 11:21:13;;;;;;;28.70;26.85;;;;;;;-141.02;40.22;43638.50;5094844;28;20189;-63
2023/08/26 11:23:41;;;;;;;17.23;16.33;;;;;;;-141.02;40.90;43552.09;5094506;28;20197;-58
2023/08/26 11:26:08;;;;;;;18.65;17.58;;;;;;;-141.02;41.43;43465.66;5094528;28;20208;-66
2023/08/26 11:28:37;;;;;;;18.75;17.65;;;;;;;-141.02;42.00;43315.91;5094418;28;20200;-66
2023/08/26 11:31:04;;;;;;;18.52;17.45;;;;;;;-141.02;41.74;43469.50;5094267;28;20315;-61
2023/08/26 11:33:31;;;;;;;17.52;16.52;;;;;;;-141.02;41.23;43479.13;5094681;28;20232;-62
2023/08/26 11:35:58;;;;;;;29.20;27.55;;;;;;;-141.02;41.04;43732.56;5094605;28;20225;-65
2023/08/26 11:38:25;;;;;;;16.95;16.05;;;;;;;-141.02;41.00;43626.97;5094146;28;20275;-60
2023/08/26 11:40:52;;;;;;;17.27;16.35;;;;;;;-141.02;41.16;43790.19;5094204;28;20197;-58
2023/08/26 11:43:19;;;;;;;17.20;16.30;;;;;;;-141.02;40.81;43742.19;5094239;28;20254;-64
2023/08/26 11:45:50;;;;;;;18.67;17.67;;;;;;;-141.02;41.30;43711.47;5094128;28;20736;-58
2023/08/26 11:48:17;;;;;;;18.52;17.52;;;;;;;-141.02;41.09;43588.56;5094113;28;20190;-63
2023/08/26 11:50:48;;;;;;;17.55;16.65;;;;;;;-141.02;41.51;43623.13;5093881;28;20233;-61
2023/08/26 11:53:15;;;;;;;17.85;16.95;;;;;;;-141.02;41.30;43676.91;5094034;28;20690;-64
2023/08/26 11:55:42;;;;;;;18.52;17.52;;;;;;;-141.02;40.87;43671.13;5093889;28;20189;-64